createdAt,value
2019-02-23T00:02:16.070Z,19.70
2019-02-23T00:04:44.490Z,23.07
2019-02-23T00:07:12.941Z,24.60
2019-02-23T00:09:41.357Z,19.42
2019-02-23T00:12:09.798Z,19.80
2019-02-23T00:14:38.226Z,20.35
2019-02-23T00:17:06.659Z,22.17
2019-02-23T00:19:35.088Z,20.35
2019-02-23T00:22:03.576Z,16.45
2019-02-23T00:24:32.099Z,18.40
2019-02-23T00:27:00.545Z,23.47
2019-02-23T00:29:28.966Z,18.80
2019-02-23T00:31:57.412Z,23.07
2019-02-23T00:34:25.849Z,19.62
2019-02-23T00:36:54.276Z,20.62
2019-02-23T00:39:22.723Z,17.82
2019-02-23T00:41:51.140Z,21.75
2019-02-23T00:44:19.575Z,25.85
2019-02-23T00:46:47.991Z,22.27
2019-02-23T00:49:16.426Z,22.58
2019-02-23T00:51:44.854Z,23.65
2019-02-23T00:54:13.310Z,21.55
2019-02-23T00:56:41.738Z,20.27
2019-02-23T00:59:10.190Z,22.37
2019-02-23T01:01:38.627Z,25.10
2019-02-23T01:04:07.058Z,26.10
2019-02-23T01:06:35.479Z,20.45
2019-02-23T01:09:04.958Z,27.37
2019-02-23T01:11:33.467Z,22.75
2019-02-23T01:14:01.910Z,19.45
2019-02-23T01:16:30.334Z,22.80
2019-02-23T01:18:58.776Z,23.67
2019-02-23T01:21:27.201Z,19.70
2019-02-23T01:23:55.650Z,20.43
2019-02-23T01:26:24.088Z,23.10
2019-02-23T01:28:52.526Z,19.65
2019-02-23T01:31:20.955Z,25.30
2019-02-23T01:33:49.475Z,23.95
2019-02-23T01:36:17.993Z,23.92
2019-02-23T01:38:46.454Z,23.32
2019-02-23T01:41:14.942Z,21.30
2019-02-23T01:43:43.452Z,24.92
2019-02-23T01:46:11.886Z,22.00
2019-02-23T01:48:40.378Z,25.37
2019-02-23T01:51:08.823Z,24.18
2019-02-23T01:53:37.242Z,26.57
2019-02-23T01:56:05.684Z,25.72
2019-02-23T01:58:34.119Z,23.55
2019-02-23T02:01:02.630Z,25.43
2019-02-23T02:03:31.050Z,25.85
2019-02-23T02:05:59.562Z,25.43
2019-02-23T02:08:27.986Z,24.57
2019-02-23T02:10:56.501Z,25.43
2019-02-23T02:13:24.995Z,26.10
2019-02-23T02:15:53.506Z,27.15
2019-02-23T02:18:21.930Z,24.47
2019-02-23T02:20:50.366Z,26.48
2019-02-23T02:23:18.798Z,21.73
2019-02-23T02:25:47.226Z,22.98
2019-02-23T02:28:15.684Z,26.02
2019-02-23T02:30:44.098Z,25.70
2019-02-23T02:33:12.558Z,29.37
2019-02-23T02:35:40.993Z,33.92
2019-02-23T02:38:09.428Z,29.18
2019-02-23T02:40:37.855Z,29.87
2019-02-23T02:43:06.311Z,25.75
2019-02-23T02:45:34.712Z,23.55
2019-02-23T02:48:03.174Z,26.02
2019-02-23T02:50:31.580Z,25.43
2019-02-23T02:53:00.023Z,24.65
2019-02-23T02:55:28.454Z,27.58
2019-02-23T02:57:56.888Z,23.20
2019-02-23T03:00:25.310Z,22.73
2019-02-23T03:02:53.742Z,24.55
2019-02-23T03:05:22.167Z,24.15
2019-02-23T03:07:50.624Z,24.37
2019-02-23T03:10:19.025Z,28.57
2019-02-23T03:12:47.444Z,24.90
2019-02-23T03:15:15.984Z,24.87
2019-02-23T03:17:44.405Z,24.80
2019-02-23T03:20:12.848Z,26.68
2019-02-23T03:22:41.274Z,25.85
2019-02-23T03:25:09.722Z,25.10
2019-02-23T03:27:38.136Z,28.12
2019-02-23T03:30:09.488Z,25.57
2019-02-23T03:32:37.953Z,23.57
2019-02-23T03:35:06.544Z,22.27
2019-02-23T03:37:34.954Z,24.90
2019-02-23T03:40:03.417Z,25.70
2019-02-23T03:42:31.834Z,22.73
2019-02-23T03:45:00.419Z,24.85
2019-02-23T03:47:28.890Z,25.17
2019-02-23T03:49:57.343Z,25.23
2019-02-23T03:52:25.770Z,28.95
2019-02-23T03:54:54.222Z,27.42
2019-02-23T03:57:22.716Z,26.52
2019-02-23T03:59:51.304Z,26.48
2019-02-23T04:02:19.827Z,29.40
2019-02-23T04:04:48.275Z,25.30
2019-02-23T04:07:16.884Z,27.75
2019-02-23T04:09:45.301Z,28.60
2019-02-23T04:12:13.759Z,23.40
2019-02-23T04:14:42.193Z,25.50
2019-02-23T04:17:10.638Z,27.95
2019-02-23T04:19:39.080Z,32.58
2019-02-23T04:22:07.588Z,26.50
2019-02-23T04:24:36.002Z,25.37
2019-02-23T04:27:04.455Z,25.17
2019-02-23T04:29:32.892Z,28.35
2019-02-23T04:32:01.326Z,26.02
2019-02-23T04:34:29.750Z,28.80
2019-02-23T04:36:58.190Z,28.40
2019-02-23T04:39:28.285Z,27.25
2019-02-23T04:41:56.736Z,25.77
2019-02-23T04:44:25.183Z,28.10
2019-02-23T04:46:53.631Z,26.62
2019-02-23T04:49:22.077Z,28.42
2019-02-23T04:51:50.571Z,27.48
2019-02-23T04:54:18.994Z,34.00
2019-02-23T04:56:47.457Z,28.55
2019-02-23T04:59:15.885Z,28.32
2019-02-23T05:01:44.402Z,30.57
2019-02-23T05:04:12.983Z,27.55
2019-02-23T05:06:41.494Z,29.82
2019-02-23T05:09:09.926Z,31.25
2019-02-23T05:11:38.371Z,31.48
2019-02-23T05:14:06.806Z,27.95
2019-02-23T05:16:35.234Z,29.65
2019-02-23T05:19:03.686Z,31.25
2019-02-23T05:21:32.189Z,33.13
2019-02-23T05:24:00.632Z,37.25
2019-02-23T05:26:29.050Z,33.28
2019-02-23T05:28:57.498Z,35.05
2019-02-23T05:31:25.920Z,37.30
2019-02-23T05:33:54.367Z,32.83
2019-02-23T05:36:22.801Z,28.83
2019-02-23T05:38:51.248Z,42.38
2019-02-23T05:41:19.671Z,38.48
2019-02-23T05:43:48.128Z,38.90
2019-02-23T05:46:16.550Z,36.80
2019-02-23T05:48:44.995Z,42.73
2019-02-23T05:51:13.428Z,39.38
2019-02-23T05:53:41.880Z,41.18
2019-02-23T05:56:15.106Z,32.88
2019-02-23T05:58:40.479Z,39.63
2019-02-23T06:01:08.904Z,32.20
2019-02-23T06:03:37.356Z,30.90
2019-02-23T06:06:05.784Z,34.65
2019-02-23T06:08:34.247Z,31.25
2019-02-23T06:11:02.750Z,32.70
2019-02-23T06:13:31.259Z,35.33
2019-02-23T06:15:59.683Z,35.15
2019-02-23T06:18:28.971Z,31.73
2019-02-23T06:20:57.429Z,29.48
2019-02-23T06:23:25.858Z,33.50
2019-02-23T06:25:54.303Z,31.40
2019-02-23T06:28:22.728Z,31.25
2019-02-23T06:30:51.176Z,32.13
2019-02-23T06:33:19.598Z,37.45
2019-02-23T06:35:48.046Z,41.28
2019-02-23T06:38:16.490Z,31.87
2019-02-23T06:40:44.951Z,35.25
2019-02-23T06:43:13.372Z,37.35
2019-02-23T06:45:41.843Z,32.67
2019-02-23T06:48:10.255Z,28.62
2019-02-23T06:50:38.717Z,32.80
2019-02-23T06:53:07.227Z,27.22
2019-02-23T06:55:35.671Z,37.75
2019-02-23T06:58:04.104Z,34.05
2019-02-23T07:00:32.627Z,31.45
2019-02-23T07:03:01.055Z,31.97
2019-02-23T07:05:29.498Z,26.30
2019-02-23T07:07:57.994Z,29.57
2019-02-23T07:10:26.430Z,28.52
2019-02-23T07:12:54.886Z,30.37
2019-02-23T07:15:23.330Z,25.30
2019-02-23T07:17:51.803Z,29.12
2019-02-23T07:20:20.286Z,29.60
2019-02-23T07:22:48.737Z,27.35
2019-02-23T07:25:17.168Z,21.93
2019-02-23T07:27:45.614Z,31.90
2019-02-23T07:30:14.655Z,25.32
2019-02-23T07:32:43.103Z,23.62
2019-02-23T07:35:11.621Z,23.50
2019-02-23T07:37:40.076Z,23.52
2019-02-23T07:40:10.857Z,22.80
2019-02-23T07:42:39.300Z,20.80
2019-02-23T07:45:09.571Z,25.20
2019-02-23T07:47:38.086Z,18.45
2019-02-23T07:50:09.950Z,25.60
2019-02-23T07:52:38.395Z,25.32
2019-02-23T07:55:07.066Z,19.50
2019-02-23T07:57:37.127Z,19.05
2019-02-23T08:00:08.697Z,17.80
2019-02-23T08:02:37.214Z,21.20
2019-02-23T08:05:08.380Z,23.62
2019-02-23T08:07:36.900Z,21.17
2019-02-23T08:10:08.702Z,21.05
2019-02-23T08:12:37.152Z,20.77
2019-02-23T08:15:08.490Z,18.65
2019-02-23T08:17:36.921Z,17.35
2019-02-23T08:20:13.200Z,20.08
2019-02-23T08:22:41.660Z,19.30
2019-02-23T08:25:12.454Z,16.17
2019-02-23T08:27:40.883Z,15.15
2019-02-23T08:30:16.266Z,14.93
2019-02-23T08:32:44.692Z,16.87
2019-02-23T08:35:13.265Z,12.55
2019-02-23T08:37:41.694Z,14.18
2019-02-23T08:40:17.221Z,16.60
2019-02-23T08:42:45.629Z,15.18
2019-02-23T08:45:14.134Z,12.35
2019-02-23T08:47:44.217Z,14.35
2019-02-23T08:50:14.276Z,10.55
2019-02-23T08:52:49.280Z,16.42
2019-02-23T08:55:12.858Z,14.33
2019-02-23T08:57:41.274Z,9.03
2019-02-23T09:00:12.521Z,13.88
2019-02-23T09:02:40.963Z,9.20
2019-02-23T09:05:10.527Z,11.53
2019-02-23T09:07:38.971Z,10.40
2019-02-23T09:10:10.507Z,11.22
2019-02-23T09:12:39.008Z,9.30
2019-02-23T09:15:08.679Z,8.55
2019-02-23T09:17:37.123Z,6.72
2019-02-23T09:20:08.065Z,14.78
2019-02-23T09:22:36.521Z,9.90
2019-02-23T09:25:06.604Z,9.03
2019-02-23T09:27:35.054Z,11.28
2019-02-23T09:30:04.027Z,8.75
2019-02-23T09:32:32.471Z,10.20
2019-02-23T09:35:00.904Z,11.15
2019-02-23T09:37:29.355Z,14.90
2019-02-23T09:39:57.769Z,8.05
2019-02-23T09:42:26.210Z,7.85
2019-02-23T09:44:54.635Z,8.45
2019-02-23T09:47:23.142Z,8.93
2019-02-23T09:49:51.583Z,5.65
2019-02-23T09:52:20.036Z,8.00
2019-02-23T09:54:48.447Z,8.18
2019-02-23T09:57:16.955Z,6.92
2019-02-23T09:59:45.370Z,8.13
2019-02-23T10:02:13.898Z,8.63
2019-02-23T10:04:42.315Z,9.03
2019-02-23T10:07:10.739Z,8.78
2019-02-23T10:09:39.251Z,12.88
2019-02-23T10:12:07.713Z,8.30
2019-02-23T10:14:36.218Z,8.95
2019-02-23T10:17:04.701Z,5.97
2019-02-23T10:19:33.157Z,6.80
2019-02-23T10:22:01.571Z,14.13
2019-02-23T10:24:30.005Z,7.65
2019-02-23T10:26:58.498Z,11.70
2019-02-23T10:29:26.939Z,8.00
2019-02-23T10:31:55.363Z,6.75
2019-02-23T10:34:23.804Z,8.20
2019-02-23T10:36:52.228Z,6.65
2019-02-23T10:39:20.743Z,9.40
2019-02-23T10:41:49.161Z,8.48
2019-02-23T10:44:17.604Z,6.22
2019-02-23T10:46:47.548Z,7.22
2019-02-23T10:49:16.011Z,9.83
2019-02-23T10:51:44.509Z,6.62
2019-02-23T10:54:12.935Z,9.40
2019-02-23T10:56:41.388Z,7.70
2019-02-23T10:59:09.799Z,5.80
2019-02-23T11:01:38.244Z,7.05
2019-02-23T11:04:06.731Z,6.55
2019-02-23T11:06:35.245Z,6.28
2019-02-23T11:09:03.898Z,6.40
2019-02-23T11:11:32.358Z,7.10
2019-02-23T11:14:00.767Z,6.28
2019-02-23T11:16:29.217Z,8.23
2019-02-23T11:18:57.636Z,7.40
2019-02-23T11:21:26.156Z,5.80
2019-02-23T11:23:54.593Z,7.95
2019-02-23T11:26:23.035Z,5.35
2019-02-23T11:28:51.474Z,6.15
2019-02-23T11:31:19.986Z,7.40
2019-02-23T11:33:48.398Z,6.17
2019-02-23T11:36:16.851Z,8.23
2019-02-23T11:38:45.271Z,9.85
2019-02-23T11:41:13.719Z,11.00
2019-02-23T11:43:42.138Z,9.85
2019-02-23T11:46:10.586Z,7.50
2019-02-23T11:48:39.006Z,4.53
2019-02-23T11:51:07.436Z,4.80
2019-02-23T11:53:35.880Z,6.60
2019-02-23T11:56:04.386Z,7.85
2019-02-23T11:58:32.810Z,6.47
2019-02-23T12:01:01.217Z,7.10
2019-02-23T12:03:29.673Z,5.05
2019-02-23T12:05:58.097Z,5.67
2019-02-23T12:08:26.557Z,6.60
2019-02-23T12:10:54.976Z,4.85
2019-02-23T12:13:23.431Z,4.72
2019-02-23T12:15:51.867Z,4.83
2019-02-23T12:18:20.311Z,4.60
2019-02-23T12:20:48.742Z,4.37
2019-02-23T12:23:17.197Z,4.03
2019-02-23T12:25:45.662Z,5.58
2019-02-23T12:28:14.124Z,6.03
2019-02-23T12:30:42.572Z,4.53
2019-02-23T12:33:11.011Z,7.77
2019-02-23T12:35:39.430Z,4.53
2019-02-23T12:38:07.878Z,3.55
2019-02-23T12:40:36.289Z,3.83
2019-02-23T12:43:04.742Z,4.30
2019-02-23T12:45:33.157Z,3.03
2019-02-23T12:48:01.620Z,4.72
2019-02-23T12:50:30.115Z,5.25
2019-02-23T12:52:59.842Z,5.17
2019-02-23T12:55:28.472Z,6.50
2019-02-23T12:57:56.942Z,4.77
2019-02-23T13:00:25.384Z,5.83
2019-02-23T13:02:53.786Z,4.07
2019-02-23T13:05:22.237Z,4.73
2019-02-23T13:07:50.709Z,3.10
2019-02-23T13:10:19.223Z,3.40
2019-02-23T13:13:14.402Z,5.30
2019-02-23T13:16:00.602Z,5.47
2019-02-23T13:18:43.895Z,4.53
2019-02-23T13:21:24.191Z,7.00
2019-02-23T13:24:13.374Z,4.03
2019-02-23T13:26:44.892Z,4.60
2019-02-23T13:29:16.383Z,8.60
2019-02-23T13:32:05.564Z,9.90
2019-02-23T13:34:46.148Z,4.87
2019-02-23T13:37:34.150Z,7.00
2019-02-23T13:40:20.308Z,5.53
2019-02-23T13:43:06.777Z,4.37
2019-02-23T13:45:44.243Z,3.10
2019-02-23T13:48:47.268Z,3.57
2019-02-23T13:51:30.593Z,3.60
2019-02-23T13:54:10.786Z,5.13
2019-02-23T13:56:56.921Z,5.17
2019-02-23T13:59:44.555Z,2.43
2019-02-23T14:02:40.083Z,2.93
2019-02-23T14:05:46.012Z,3.60
2019-02-23T14:08:28.818Z,7.37
2019-02-23T14:11:24.107Z,4.40
2019-02-23T14:14:11.834Z,1.93
2019-02-23T14:17:05.292Z,2.70
2019-02-23T14:19:39.526Z,5.50
2019-02-23T14:22:16.731Z,3.80
2019-02-23T14:25:13.823Z,2.10
2019-02-23T14:28:18.218Z,3.00
2019-02-23T14:30:58.432Z,1.90
2019-02-23T14:33:29.950Z,3.85
2019-02-23T14:36:07.022Z,2.93
2019-02-23T14:38:58.079Z,2.20
2019-02-23T14:41:38.621Z,1.75
2019-02-23T14:44:15.680Z,3.17
2019-02-23T14:46:53.223Z,3.12
2019-02-23T14:49:24.820Z,1.60
2019-02-23T14:52:16.640Z,5.03
2019-02-23T14:55:00.834Z,3.27
2019-02-23T14:57:36.197Z,1.95
2019-02-23T15:00:13.451Z,2.62
2019-02-23T15:03:19.334Z,4.75
2019-02-23T15:05:56.390Z,3.10
2019-02-23T15:08:36.457Z,2.62
2019-02-23T15:11:13.706Z,2.83
2019-02-23T15:13:57.023Z,3.60
2019-02-23T15:16:37.415Z,3.75
2019-02-23T15:19:20.850Z,4.83
2019-02-23T15:22:16.334Z,2.65
2019-02-23T15:25:13.235Z,2.60
2019-02-23T15:27:43.278Z,2.80
2019-02-23T15:30:14.808Z,3.37
2019-02-23T15:33:01.177Z,3.15
2019-02-23T15:35:52.138Z,3.15
2019-02-23T15:38:49.287Z,3.15
2019-02-23T15:41:37.272Z,3.20
2019-02-23T15:44:11.716Z,7.03
2019-02-23T15:47:14.647Z,3.95
2019-02-23T15:49:43.292Z,3.60
2019-02-23T15:52:11.776Z,5.03
2019-02-23T15:54:40.192Z,2.80
2019-02-23T15:57:08.651Z,3.45
2019-02-23T15:59:37.212Z,3.02
2019-02-23T16:02:05.798Z,3.12
2019-02-23T16:04:34.270Z,4.28
2019-02-23T16:07:02.707Z,4.62
2019-02-23T16:09:31.196Z,3.33
2019-02-23T16:11:59.638Z,3.37
2019-02-23T16:14:28.055Z,3.27
2019-02-23T16:16:56.495Z,3.83
2019-02-23T16:19:24.922Z,2.95
2019-02-23T16:21:54.913Z,3.25
2019-02-23T16:24:23.336Z,4.25
2019-02-23T16:26:51.765Z,3.25
2019-02-23T16:29:20.251Z,3.10
2019-02-23T16:31:48.696Z,4.87
2019-02-23T16:34:17.111Z,6.35
2019-02-23T16:36:45.568Z,8.28
2019-02-23T16:39:13.982Z,4.60
2019-02-23T16:41:42.439Z,5.15
2019-02-23T16:44:10.931Z,3.55
2019-02-23T16:46:39.358Z,4.00
2019-02-23T16:49:07.774Z,6.25
2019-02-23T16:51:36.224Z,6.17
2019-02-23T16:54:04.789Z,6.50
2019-02-23T16:56:33.202Z,4.05
2019-02-23T16:59:01.635Z,4.53
2019-02-23T17:01:30.067Z,4.00
2019-02-23T17:03:58.569Z,5.58
2019-02-23T17:06:27.040Z,4.33
2019-02-23T17:08:55.486Z,4.95
2019-02-23T17:11:23.964Z,4.05
2019-02-23T17:13:52.435Z,4.62
2019-02-23T17:16:20.887Z,2.75
2019-02-23T17:18:49.429Z,5.28
2019-02-23T17:21:17.935Z,4.60
2019-02-23T17:23:46.375Z,6.42
2019-02-23T17:26:14.811Z,8.68
2019-02-23T17:28:43.315Z,10.32
2019-02-23T17:31:11.774Z,7.17
2019-02-23T17:33:40.194Z,4.12
2019-02-23T17:36:08.662Z,3.10
2019-02-23T17:38:37.101Z,4.40
2019-02-23T17:41:05.543Z,4.72
2019-02-23T17:43:33.990Z,3.25
2019-02-23T17:46:02.447Z,6.45
2019-02-23T17:51:00.379Z,4.40
2019-02-23T17:53:28.836Z,6.05
2019-02-23T17:55:57.273Z,4.30
2019-02-23T17:58:25.699Z,7.90
2019-02-23T18:00:54.142Z,4.22
2019-02-23T18:03:22.587Z,6.22
2019-02-23T18:05:51.021Z,8.15
2019-02-23T18:08:19.422Z,7.17
2019-02-23T18:10:47.863Z,6.17
2019-02-23T18:13:16.274Z,4.30
2019-02-23T18:15:44.718Z,5.95
2019-02-23T18:18:13.144Z,5.00
2019-02-23T18:20:41.563Z,4.58
2019-02-23T18:23:09.991Z,5.28
2019-02-23T18:25:38.442Z,7.10
2019-02-23T18:28:06.929Z,3.95
2019-02-23T18:30:35.365Z,5.37
2019-02-23T18:33:03.801Z,4.28
2019-02-23T18:35:32.263Z,3.67
2019-02-23T18:38:00.670Z,7.03
2019-02-23T18:40:29.095Z,6.30
2019-02-23T18:42:57.515Z,4.05
2019-02-23T18:45:25.950Z,5.80
2019-02-23T18:47:54.438Z,6.28
2019-02-23T18:50:22.863Z,3.72
2019-02-23T18:52:51.301Z,7.67
2019-02-23T18:55:19.790Z,5.87
2019-02-23T18:57:48.264Z,3.33
2019-02-23T19:00:24.174Z,5.70
2019-02-23T19:02:46.948Z,5.12
2019-02-23T19:05:15.367Z,7.15
2019-02-23T19:07:43.798Z,14.10
2019-02-23T19:10:13.675Z,14.43
2019-02-23T19:12:42.134Z,8.08
2019-02-23T19:15:15.069Z,9.98
2019-02-23T19:17:43.499Z,5.60
2019-02-23T19:20:14.330Z,8.83
2019-02-23T19:22:42.769Z,5.92
2019-02-23T19:25:11.654Z,5.50
2019-02-23T19:27:40.098Z,17.52
2019-02-23T19:30:13.639Z,6.62
2019-02-23T19:32:42.063Z,5.10
2019-02-23T19:35:10.565Z,5.40
2019-02-23T19:37:39.017Z,2.98
2019-02-23T19:40:09.071Z,5.08
2019-02-23T19:42:37.587Z,5.83
2019-02-23T19:45:08.956Z,4.78
2019-02-23T19:47:37.938Z,8.48
2019-02-23T19:50:09.463Z,19.70
2019-02-23T19:52:37.984Z,13.03
2019-02-23T19:55:09.458Z,11.35
2019-02-23T19:57:37.923Z,9.75
2019-02-23T20:00:08.684Z,8.98
2019-02-23T20:02:37.139Z,6.65
2019-02-23T20:05:10.351Z,8.23
2019-02-23T20:07:38.826Z,6.45
2019-02-23T20:10:10.939Z,3.90
2019-02-23T20:12:39.373Z,7.12
2019-02-23T20:15:09.543Z,3.98
2019-02-23T20:17:37.969Z,4.45
2019-02-23T20:20:07.352Z,2.95
2019-02-23T20:22:35.795Z,5.97
2019-02-23T20:25:05.967Z,4.28
2019-02-23T20:27:34.419Z,3.77
2019-02-23T20:30:02.923Z,5.78
2019-02-23T20:32:31.808Z,4.25
2019-02-23T20:35:00.271Z,4.42
2019-02-23T20:37:28.748Z,4.70
2019-02-23T20:39:57.196Z,5.50
2019-02-23T20:42:25.691Z,7.85
2019-02-23T20:44:54.140Z,7.62
2019-02-23T20:47:22.575Z,4.97
2019-02-23T20:49:51.127Z,5.67
2019-02-23T20:52:19.530Z,3.37
2019-02-23T20:54:47.975Z,4.33
2019-02-23T20:57:16.479Z,4.72
2019-02-23T20:59:44.940Z,1.80
2019-02-23T21:02:13.490Z,5.42
2019-02-23T21:04:41.954Z,4.08
2019-02-23T21:07:10.373Z,3.90
2019-02-23T21:09:38.883Z,4.03
2019-02-23T21:12:07.329Z,4.05
2019-02-23T21:14:35.753Z,5.72
2019-02-23T21:17:04.181Z,3.22
2019-02-23T21:19:32.678Z,4.28
2019-02-23T21:22:01.123Z,5.45
2019-02-23T21:24:29.542Z,4.55
2019-02-23T21:26:58.028Z,5.15
2019-02-23T21:29:26.475Z,4.10
2019-02-23T21:31:54.947Z,5.87
2019-02-23T21:34:23.359Z,4.80
2019-02-23T21:36:51.823Z,3.67
2019-02-23T21:39:20.250Z,4.78
2019-02-23T21:41:48.707Z,5.80
2019-02-23T21:44:17.131Z,4.45
2019-02-23T21:46:45.576Z,3.12
2019-02-23T21:49:14.009Z,4.47
2019-02-23T21:51:42.458Z,3.70
2019-02-23T21:54:11.356Z,5.20
2019-02-23T21:56:39.941Z,3.60
2019-02-23T21:59:08.449Z,2.95
2019-02-23T22:01:36.897Z,6.10
2019-02-23T22:04:05.317Z,4.78
2019-02-23T22:06:33.828Z,3.67
2019-02-23T22:09:02.435Z,4.62
2019-02-23T22:11:30.922Z,3.50
2019-02-23T22:13:59.347Z,5.60
2019-02-23T22:16:27.814Z,5.75
2019-02-23T22:18:56.256Z,3.40
2019-02-23T22:21:24.684Z,5.45
2019-02-23T22:23:53.119Z,3.87
2019-02-23T22:26:21.553Z,3.62
2019-02-23T22:28:50.003Z,3.10
2019-02-23T22:31:18.433Z,4.85
2019-02-23T22:33:46.892Z,5.20
2019-02-23T22:36:15.316Z,2.72
2019-02-23T22:38:43.756Z,4.45
2019-02-23T22:41:12.170Z,5.40
2019-02-23T22:43:40.636Z,5.03
2019-02-23T22:46:09.141Z,4.83
2019-02-23T22:48:37.578Z,3.12
2019-02-23T22:51:06.008Z,4.12
2019-02-23T22:53:34.463Z,2.87
2019-02-23T22:56:02.901Z,3.83
2019-02-23T22:58:31.330Z,4.10
2019-02-23T23:01:01.631Z,3.08
2019-02-23T23:03:30.051Z,3.20
2019-02-23T23:05:58.501Z,4.25
2019-02-23T23:08:26.934Z,2.35
2019-02-23T23:10:55.346Z,2.98
2019-02-23T23:13:23.810Z,3.58
2019-02-23T23:15:52.300Z,4.78
2019-02-23T23:18:20.724Z,4.47
2019-02-23T23:20:49.199Z,3.30
2019-02-23T23:23:17.611Z,6.12
2019-02-23T23:25:46.068Z,5.45
2019-02-23T23:28:14.496Z,3.52
2019-02-23T23:30:42.999Z,5.65
2019-02-23T23:33:11.485Z,3.17
2019-02-23T23:35:39.955Z,2.42
2019-02-23T23:38:08.374Z,2.30
2019-02-23T23:40:36.816Z,2.98
2019-02-23T23:43:05.264Z,5.08
2019-02-23T23:45:33.769Z,4.10
2019-02-23T23:48:02.195Z,5.40
2019-02-23T23:50:30.662Z,2.25
2019-02-23T23:52:59.086Z,3.58
2019-02-23T23:55:27.530Z,2.75
2019-02-23T23:57:58.358Z,3.87
